Time;durP1;ratioP1;P1;durP2;ratioP2;P2;SDS_P1;SDS_P2;PMS_P1;PMS_P2;Temp;Humidity;BMP_temperature;BMP_pressure;BME280_temperature;BME280_humidity;BME280_pressure;Samples;Min_cycle;Max_cycle;Signal;HPM_P1;HPM_P2
2021/08/03 00:01:59;;;;;;;3.92;2.53;;;12.40;99.90;;;;;;5142333;27;20524;-83
2021/08/03 00:04:35;;;;;;;5.72;3.15;;;12.40;99.90;;;;;;5136443;27;20042;-88
2021/08/03 00:07:02;;;;;;;6.40;2.72;;;12.30;99.90;;;;;;5137073;27;20039;-88
2021/08/03 00:09:32;;;;;;;5.28;2.58;;;12.30;99.90;;;;;;5136783;27;20043;-84
2021/08/03 00:11:59;;;;;;;6.20;2.38;;;12.30;99.90;;;;;;5136139;27;20035;-84
2021/08/03 00:14:25;;;;;;;4.85;2.63;;;12.20;99.90;;;;;;5135679;27;20043;-86
2021/08/03 00:16:52;;;;;;;5.90;2.80;;;12.20;99.90;;;;;;5135496;27;20049;-83
2021/08/03 00:19:22;;;;;;;4.78;2.55;;;12.20;99.90;;;;;;5135667;27;20031;-85
2021/08/03 00:21:49;;;;;;;5.38;2.97;;;12.10;99.90;;;;;;5136217;27;20429;-88
2021/08/03 00:24:17;;;;;;;5.25;2.58;;;12.10;99.90;;;;;;5135543;27;20062;-87
2021/08/03 00:26:43;;;;;;;8.80;3.25;;;12.10;99.90;;;;;;5134476;27;20039;-84
2021/08/03 00:29:13;;;;;;;4.93;2.70;;;12.00;99.90;;;;;;5135736;27;20045;-86
2021/08/03 00:31:39;;;;;;;4.43;2.80;;;12.00;99.90;;;;;;5126879;27;20419;-84
2021/08/03 00:34:05;;;;;;;6.35;2.97;;;12.00;99.90;;;;;;5133978;27;20035;-88
2021/08/03 00:36:31;;;;;;;4.28;2.78;;;11.90;99.90;;;;;;5134407;27;20035;-86
2021/08/03 00:38:57;;;;;;;6.80;2.53;;;11.90;99.90;;;;;;5121394;27;20039;-86
2021/08/03 00:41:35;;;;;;;3.85;2.55;;;11.80;99.90;;;;;;5133914;27;20412;-87
2021/08/03 00:44:01;;;;;;;4.28;2.40;;;11.80;99.90;;;;;;5123172;27;20035;-89
2021/08/03 00:46:27;;;;;;;5.80;2.75;;;11.80;99.90;;;;;;5119676;27;20499;-89
2021/08/03 00:48:53;;;;;;;5.63;2.85;;;11.80;99.90;;;;;;5114401;28;20047;-86
2021/08/03 00:51:22;;;;;;;5.50;3.00;;;11.80;99.90;;;;;;5128232;27;20039;-86
2021/08/03 00:53:48;;;;;;;3.83;2.47;;;11.80;99.90;;;;;;5134084;27;20027;-87
2021/08/03 00:56:14;;;;;;;;;;;11.80;99.90;;;;;;5119962;27;20367;-82
2021/08/03 00:58:40;;;;;;;4.10;2.33;;;11.70;99.90;;;;;;5132494;27;19922;-84
2021/08/03 01:01:06;;;;;;;5.00;2.42;;;11.70;99.90;;;;;;5133007;27;20463;-87
2021/08/03 01:03:32;;;;;;;6.18;2.40;;;11.70;99.90;;;;;;5124255;27;20110;-84
2021/08/03 01:06:27;;;;;;;5.70;2.42;;;11.70;99.90;;;;;;5129575;27;20035;-83
2021/08/03 01:09:02;;;;;;;4.82;2.58;;;11.60;99.90;;;;;;5125449;27;20031;-86
2021/08/03 01:11:45;;;;;;;4.75;2.55;;;11.60;99.90;;;;;;5120467;27;20031;-90
2021/08/03 01:14:17;;;;;;;8.25;3.40;;;11.60;99.90;;;;;;5132178;27;20050;-83
2021/08/03 01:16:57;;;;;;;5.35;2.35;;;11.60;99.90;;;;;;5104820;28;20050;-83
2021/08/03 01:19:46;;;;;;;4.68;2.42;;;11.50;99.90;;;;;;5132690;27;20387;-83
2021/08/03 01:22:31;;;;;;;5.50;2.70;;;11.50;99.90;;;;;;5134327;27;20036;-85
2021/08/03 01:25:24;;;;;;;5.15;3.00;;;11.40;99.90;;;;;;5132721;27;20121;-87
2021/08/03 01:28:38;;;;;;;6.28;2.58;;;11.40;99.90;;;;;;5119702;27;20039;-83
2021/08/03 01:31:29;;;;;;;4.45;2.58;;;11.30;99.90;;;;;;5035912;28;20196;-80
2021/08/03 01:34:16;;;;;;;4.95;2.42;;;11.30;99.90;;;;;;5123783;27;20454;-84
2021/08/03 01:36:45;;;;;;;;;;;11.30;99.90;;;;;;5133915;27;20480;-84
2021/08/03 01:39:12;;;;;;;6.18;2.90;;;11.20;99.90;;;;;;5133867;27;20292;-84
2021/08/03 01:41:38;;;;;;;4.38;2.47;;;11.20;99.90;;;;;;5132976;27;20437;-87
2021/08/03 01:44:09;;;;;;;6.38;2.42;;;11.10;99.90;;;;;;5132756;27;20050;-88
2021/08/03 01:46:36;;;;;;;7.65;3.53;;;11.10;99.90;;;;;;5117071;27;20141;-86
2021/08/03 01:49:03;;;;;;;5.00;2.60;;;11.10;99.90;;;;;;5111982;27;20046;-84
2021/08/03 01:51:31;;;;;;;4.93;2.63;;;11.00;99.90;;;;;;5136792;27;20068;-87
2021/08/03 01:53:57;;;;;;;6.22;2.60;;;11.00;99.90;;;;;;5116647;27;20028;-86
2021/08/03 01:56:24;;;;;;;;;;;11.00;99.90;;;;;;5128605;27;20038;-84
2021/08/03 01:58:50;;;;;;;3.72;2.40;;;10.90;99.90;;;;;;5132935;27;19915;-87
2021/08/03 02:01:19;;;;;;;3.42;2.40;;;10.90;99.90;;;;;;5132412;27;20476;-84
2021/08/03 02:03:45;;;;;;;4.55;2.75;;;10.90;99.90;;;;;;5132361;27;20031;-83
2021/08/03 02:06:12;;;;;;;5.15;2.67;;;10.80;99.90;;;;;;5112934;27;20050;-86
2021/08/03 02:08:39;;;;;;;4.57;3.10;;;10.70;99.90;;;;;;5132825;27;20035;-83
2021/08/03 02:11:05;;;;;;;5.88;2.67;;;10.70;99.90;;;;;;5133269;27;20039;-87
2021/08/03 02:13:31;;;;;;;5.15;2.55;;;10.70;99.90;;;;;;5120390;27;20039;-87
2021/08/03 02:15:57;;;;;;;;;;;10.60;99.90;;;;;;5129615;27;20034;-84
2021/08/03 02:18:23;;;;;;;4.93;2.75;;;10.70;99.90;;;;;;5132357;27;20394;-82
2021/08/03 02:20:49;;;;;;;5.50;3.25;;;10.70;99.90;;;;;;5132769;27;20357;-85
2021/08/03 02:23:15;;;;;;;5.60;3.50;;;10.70;99.90;;;;;;5115196;27;20039;-84
2021/08/03 02:25:42;;;;;;;3.97;2.60;;;10.60;99.90;;;;;;5092937;28;20050;-83
2021/08/03 02:28:09;;;;;;;5.40;2.58;;;10.50;99.90;;;;;;5122732;27;20059;-88
2021/08/03 02:30:35;;;;;;;7.32;2.97;;;10.50;99.90;;;;;;5122781;27;20031;-89
2021/08/03 02:33:19;;;;;;;5.03;3.00;;;10.50;99.90;;;;;;5130835;27;20473;-85
2021/08/03 02:35:52;;;;;;;4.30;2.70;;;10.40;99.90;;;;;;5120259;27;20114;-86
2021/08/03 02:38:22;;;;;;;5.93;3.25;;;10.40;99.90;;;;;;5132762;27;20231;-86
2021/08/03 02:40:49;;;;;;;5.35;2.83;;;10.30;99.90;;;;;;5132956;27;20031;-82
2021/08/03 02:43:19;;;;;;;6.00;3.78;;;10.30;99.90;;;;;;5131113;27;20039;-84
2021/08/03 02:45:45;;;;;;;6.07;3.22;;;10.30;99.90;;;;;;5134059;27;20450;-81
2021/08/03 02:48:14;;;;;;;7.03;2.90;;;10.30;99.90;;;;;;5116992;27;20040;-84
2021/08/03 02:50:42;;;;;;;5.65;3.22;;;10.30;99.90;;;;;;5131673;27;20043;-83
2021/08/03 02:53:24;;;;;;;5.25;2.80;;;10.30;99.90;;;;;;5128942;27;20362;-87
2021/08/03 02:55:57;;;;;;;6.68;4.07;;;10.20;99.90;;;;;;5123032;27;20035;-85
2021/08/03 02:58:58;;;;;;;7.68;4.15;;;10.20;99.90;;;;;;5132054;27;20388;-86
2021/08/03 03:01:27;;;;;;;6.25;3.30;;;10.20;99.90;;;;;;5117530;27;20469;-86
2021/08/03 03:03:57;;;;;;;6.13;3.90;;;10.20;99.90;;;;;;5131978;27;20405;-89
2021/08/03 03:06:24;;;;;;;5.97;3.40;;;10.30;99.90;;;;;;5132770;27;20031;-87
2021/08/03 03:08:52;;;;;;;6.53;4.25;;;10.30;99.90;;;;;;5118682;28;20060;-82
2021/08/03 03:11:20;;;;;;;9.90;4.88;;;10.30;99.90;;;;;;5129973;28;20041;-84
2021/08/03 03:13:56;;;;;;;7.50;4.55;;;10.30;99.90;;;;;;5118019;28;20031;-84
2021/08/03 03:16:24;;;;;;;12.10;5.33;;;10.30;99.90;;;;;;5121243;27;20122;-81
2021/08/03 03:18:50;;;;;;;10.82;5.55;;;10.30;99.90;;;;;;5136304;27;20469;-80
2021/08/03 03:21:19;;;;;;;10.25;5.30;;;10.30;99.90;;;;;;5137427;27;20035;-82
2021/08/03 03:23:49;;;;;;;10.60;5.75;;;10.30;99.90;;;;;;5137553;27;20059;-83
2021/08/03 03:26:16;;;;;;;9.52;5.10;;;10.30;99.90;;;;;;5135826;27;20034;-83
2021/08/03 03:28:43;;;;;;;13.63;6.47;;;10.40;99.90;;;;;;5136039;27;20452;-83
2021/08/03 03:31:10;;;;;;;9.70;5.95;;;10.40;99.90;;;;;;5115202;27;20039;-84
2021/08/03 03:33:38;;;;;;;11.65;6.97;;;10.40;99.90;;;;;;5129314;27;20039;-81
2021/08/03 03:36:05;;;;;;;13.13;8.00;;;10.40;99.90;;;;;;5135020;27;20091;-89
2021/08/03 03:38:36;;;;;;;13.40;7.13;;;10.60;99.90;;;;;;5136046;27;20042;-86
2021/08/03 03:41:03;;;;;;;12.65;7.22;;;10.60;99.90;;;;;;5125698;27;20039;-89
2021/08/03 03:43:30;;;;;;;9.38;5.88;;;10.70;99.90;;;;;;5130096;27;20115;-86
2021/08/03 03:46:11;;;;;;;9.80;6.00;;;10.70;99.90;;;;;;5134779;27;20046;-83
2021/08/03 03:48:52;;;;;;;9.10;6.18;;;10.60;99.90;;;;;;5138621;27;20035;-85
2021/08/03 03:51:21;;;;;;;9.50;5.65;;;10.70;99.90;;;;;;5123410;27;20047;-85
2021/08/03 03:53:55;;;;;;;11.20;5.65;;;10.60;99.90;;;;;;5123424;27;20059;-83
2021/08/03 03:56:29;;;;;;;11.02;5.80;;;10.50;99.90;;;;;;5132665;27;20476;-86
2021/08/03 03:58:59;;;;;;;8.88;5.80;;;10.50;99.90;;;;;;5137148;27;20107;-81
2021/08/03 04:01:26;;;;;;;9.25;5.65;;;10.50;99.90;;;;;;5133517;27;20031;-83
2021/08/03 04:03:55;;;;;;;8.88;5.53;;;10.50;99.90;;;;;;5142181;27;20050;-86
2021/08/03 04:06:21;;;;;;;12.43;6.28;;;10.40;99.90;;;;;;5139033;27;20476;-90
2021/08/03 04:08:46;;;;;;;10.60;6.65;;;10.50;99.90;;;;;;5137665;27;20045;-87
2021/08/03 04:11:16;;;;;;;10.43;6.53;;;10.50;99.90;;;;;;5130093;27;20047;-85
2021/08/03 04:13:47;;;;;;;11.98;6.80;;;10.60;99.90;;;;;;5137589;27;20069;-85
2021/08/03 04:16:14;;;;;;;8.35;5.57;;;10.70;99.90;;;;;;5122470;27;20042;-83
2021/08/03 04:18:40;;;;;;;10.70;6.68;;;10.90;99.90;;;;;;5139363;27;20046;-81
2021/08/03 04:21:07;;;;;;;12.25;6.88;;;10.90;99.90;;;;;;5137737;27;20444;-83
2021/08/03 04:23:33;;;;;;;10.85;6.03;;;10.90;99.90;;;;;;5135842;27;20069;-86
2021/08/03 04:26:00;;;;;;;10.40;6.15;;;10.90;99.90;;;;;;5135099;27;20035;-85
2021/08/03 04:28:26;;;;;;;;;;;11.00;99.90;;;;;;5133655;27;20066;-83
2021/08/03 04:30:52;;;;;;;8.25;5.18;;;11.10;99.90;;;;;;5133511;27;19919;-85
2021/08/03 04:33:18;;;;;;;12.35;5.55;;;11.20;99.90;;;;;;5116711;27;20092;-85
2021/08/03 04:35:43;;;;;;;10.30;5.78;;;11.30;99.90;;;;;;5134659;27;20087;-86
2021/08/03 04:38:10;;;;;;;8.18;5.40;;;11.40;99.90;;;;;;5135926;27;20133;-87
2021/08/03 04:40:35;;;;;;;8.43;5.07;;;11.50;99.90;;;;;;5114357;27;20377;-85
2021/08/03 04:43:01;;;;;;;8.27;5.22;;;11.70;99.90;;;;;;5130884;27;20107;-83
2021/08/03 04:45:29;;;;;;;8.88;4.63;;;11.70;99.90;;;;;;5131523;27;20388;-82
2021/08/03 04:47:55;;;;;;;9.68;5.07;;;11.80;99.90;;;;;;5135082;27;20039;-85
2021/08/03 04:50:26;;;;;;;9.55;5.28;;;11.90;99.90;;;;;;5127871;27;20062;-82
2021/08/03 04:52:53;;;;;;;7.68;4.63;;;12.00;99.90;;;;;;5138031;27;20042;-82
2021/08/03 04:55:19;;;;;;;10.05;5.10;;;12.10;99.90;;;;;;5129144;27;20042;-83
2021/08/03 04:57:45;;;;;;;8.02;4.57;;;12.20;99.90;;;;;;5119434;27;20044;-86
2021/08/03 05:00:13;;;;;;;7.63;4.50;;;12.20;99.90;;;;;;5134767;27;20168;-84
2021/08/03 05:02:40;;;;;;;8.23;4.43;;;12.40;99.90;;;;;;5120229;27;20031;-84
2021/08/03 05:05:08;;;;;;;10.10;4.75;;;12.40;99.90;;;;;;5113351;27;20039;-82
2021/08/03 05:07:35;;;;;;;7.15;4.05;;;12.60;99.90;;;;;;5111316;27;20377;-82
2021/08/03 05:10:13;;;;;;;8.20;4.10;;;12.70;99.90;;;;;;5122655;27;20113;-86
2021/08/03 05:12:39;;;;;;;6.43;4.25;;;12.70;99.90;;;;;;5127594;27;20473;-84
2021/08/03 05:15:07;;;;;;;8.43;4.40;;;12.80;99.90;;;;;;5123629;27;20540;-83
2021/08/03 05:17:34;;;;;;;7.25;3.78;;;12.90;99.90;;;;;;5133502;27;20039;-84
2021/08/03 05:20:01;;;;;;;7.15;3.70;;;13.00;99.90;;;;;;5127360;27;20036;-82
2021/08/03 05:22:27;;;;;;;5.18;3.22;;;13.10;99.90;;;;;;5131049;27;20039;-84
2021/08/03 05:24:53;;;;;;;6.05;3.50;;;13.20;99.90;;;;;;5114978;27;20036;-83
2021/08/03 05:27:20;;;;;;;6.53;3.40;;;13.30;99.90;;;;;;5119251;27;20437;-79
2021/08/03 05:29:46;;;;;;;6.97;3.50;;;13.40;99.90;;;;;;5124393;27;20043;-82
2021/08/03 05:32:12;;;;;;;9.85;3.72;;;13.50;99.90;;;;;;5103109;27;20051;-85
2021/08/03 05:34:38;;;;;;;5.93;3.42;;;13.70;99.90;;;;;;5133844;27;20039;-86
2021/08/03 05:37:04;;;;;;;;;;;13.80;99.90;;;;;;5124186;27;20047;-84
2021/08/03 05:39:30;;;;;;;3.95;2.83;;;13.90;99.90;;;;;;5112868;27;20023;-86
2021/08/03 05:42:00;;;;;;;5.53;3.30;;;13.90;99.90;;;;;;5123172;27;20544;-86
2021/08/03 05:44:27;;;;;;;7.07;3.58;;;14.00;99.90;;;;;;5117703;27;20036;-84
2021/08/03 05:46:53;;;;;;;9.65;3.40;;;14.10;99.90;;;;;;5123870;27;20068;-88
2021/08/03 05:49:19;;;;;;;6.45;3.08;;;14.20;99.90;;;;;;5125615;27;20039;-87
2021/08/03 05:51:45;;;;;;;;;;;14.40;99.90;;;;;;5112508;28;20039;-89
2021/08/03 05:54:11;;;;;;;5.40;2.92;;;14.40;99.90;;;;;;5122332;27;20134;-87
2021/08/03 05:56:37;;;;;;;;;;;14.50;99.90;;;;;;5107373;27;20043;-86
2021/08/03 05:59:03;;;;;;;7.47;2.70;;;14.60;99.90;;;;;;5114995;27;20066;-83
2021/08/03 06:01:29;;;;;;;4.55;2.42;;;14.80;99.90;;;;;;5133418;27;20035;-83
2021/08/03 06:03:55;;;;;;;;;;;14.90;99.90;;;;;;5129004;27;20038;-85
2021/08/03 06:06:21;;;;;;;4.47;1.88;;;15.00;99.90;;;;;;5127356;27;19922;-86
2021/08/03 06:08:47;;;;;;;3.20;2.08;;;15.10;99.90;;;;;;5133232;27;20051;-85
2021/08/03 06:11:17;;;;;;;;;;;15.20;99.90;;;;;;5131794;27;20166;-88
2021/08/03 06:13:53;;;;;;;12.45;2.33;;;15.30;99.90;;;;;;5128395;27;19969;-89
2021/08/03 06:16:20;;;;;;;4.10;2.08;;;15.40;99.90;;;;;;5114277;27;20046;-87
2021/08/03 06:18:47;;;;;;;3.50;1.80;;;15.50;99.90;;;;;;5146048;27;20517;-85
2021/08/03 06:21:15;;;;;;;4.03;1.77;;;15.50;99.90;;;;;;5121576;27;20041;-85
2021/08/03 06:23:46;;;;;;;5.70;1.73;;;15.50;99.90;;;;;;5124276;27;20043;-83
2021/08/03 06:26:13;;;;;;;5.10;1.70;;;15.60;99.90;;;;;;5130524;27;20043;-86
2021/08/03 06:28:42;;;;;;;3.47;1.67;;;15.60;99.90;;;;;;5094815;27;20138;-83
2021/08/03 06:31:08;;;;;;;3.03;1.60;;;15.60;99.90;;;;;;5111566;27;20036;-84
2021/08/03 06:33:34;;;;;;;3.92;2.10;;;15.60;99.90;;;;;;5124734;27;20042;-85
2021/08/03 06:36:00;;;;;;;;;;;15.60;99.90;;;;;;5123199;27;20031;-90
2021/08/03 06:38:26;;;;;;;3.80;1.83;;;15.60;99.90;;;;;;5087313;28;20404;-87
2021/08/03 06:41:07;;;;;;;;;;;15.70;99.90;;;;;;5101268;27;20036;-88
2021/08/03 06:43:35;;;;;;;4.15;1.60;;;15.80;99.90;;;;;;5131411;27;19919;-89
2021/08/03 06:46:07;;;;;;;4.35;1.88;;;15.90;99.90;;;;;;5116007;27;20347;-83
2021/08/03 06:49:00;;;;;;;5.18;2.03;;;16.00;99.90;;;;;;5122439;27;20035;-82
2021/08/03 06:51:32;;;;;;;4.10;1.85;;;16.00;99.90;;;;;;5123917;27;20051;-85
2021/08/03 06:54:03;;;;;;;4.63;1.77;;;16.10;99.90;;;;;;5114325;27;20219;-83
2021/08/03 06:56:50;;;;;;;3.55;1.73;;;16.00;99.90;;;;;;5112942;27;20111;-83
2021/08/03 06:59:19;;;;;;;3.92;2.40;;;16.10;99.90;;;;;;5126059;27;20042;-82
2021/08/03 07:01:44;;;;;;;4.22;2.03;;;16.20;99.90;;;;;;5116088;27;20031;-83
2021/08/03 07:04:12;;;;;;;2.95;2.03;;;16.30;99.90;;;;;;5113717;27;20103;-83
2021/08/03 07:06:45;;;;;;;5.45;2.03;;;16.30;99.90;;;;;;5131143;27;20384;-78
2021/08/03 07:09:11;;;;;;;6.15;2.10;;;16.30;99.90;;;;;;5116034;27;20478;-80
2021/08/03 07:11:38;;;;;;;4.53;2.20;;;16.40;99.90;;;;;;5108398;28;20563;-79
2021/08/03 07:14:05;;;;;;;2.83;1.40;;;16.50;99.90;;;;;;5120389;28;20047;-79
2021/08/03 07:16:31;;;;;;;3.10;1.30;;;16.60;99.90;;;;;;5125935;27;20380;-79
2021/08/03 07:18:58;;;;;;;2.90;1.40;;;16.70;99.90;;;;;;5121467;28;20528;-80
2021/08/03 07:21:25;;;;;;;1.67;1.10;;;16.80;99.90;;;;;;5116079;28;20035;-78
2021/08/03 07:23:55;;;;;;;2.50;1.70;;;16.90;99.90;;;;;;5123787;27;20050;-79
2021/08/03 07:26:22;;;;;;;2.90;1.48;;;16.90;99.90;;;;;;5116925;27;20050;-79
2021/08/03 07:28:48;;;;;;;2.70;1.48;;;17.00;99.90;;;;;;5109794;27;20051;-79
2021/08/03 07:31:14;;;;;;;2.80;1.30;;;17.10;99.90;;;;;;5120676;28;20457;-80
2021/08/03 07:33:40;;;;;;;;;;;17.20;99.90;;;;;;5119638;28;20118;-78
2021/08/03 07:36:05;;;;;;;2.13;1.02;;;17.20;99.90;;;;;;5115243;28;20429;-77
2021/08/03 07:38:31;;;;;;;2.35;1.40;;;17.20;99.90;;;;;;5126717;28;20480;-76
2021/08/03 07:40:57;;;;;;;2.10;1.40;;;17.30;99.90;;;;;;5115955;28;20114;-78
2021/08/03 07:43:23;;;;;;;;;;;17.40;99.90;;;;;;5125786;28;20113;-77
2021/08/03 07:45:49;;;;;;;3.17;1.50;;;17.50;99.90;;;;;;5111032;28;19919;-79
2021/08/03 07:48:15;;;;;;;3.15;1.58;;;17.50;99.90;;;;;;5117294;28;20530;-78
2021/08/03 07:50:41;;;;;;;5.28;1.70;;;17.60;99.90;;;;;;5122842;28;20043;-77
2021/08/03 07:53:07;;;;;;;;;;;17.80;99.90;;;;;;5125946;28;20131;-80
2021/08/03 07:55:33;;;;;;;2.80;1.80;;;17.90;99.90;;;;;;5122189;28;19951;-80
2021/08/03 07:57:59;;;;;;;;;;;18.00;99.90;;;;;;5116548;27;20043;-78
2021/08/03 08:00:25;;;;;;;2.90;1.83;;;18.10;99.90;;;;;;5121518;27;19945;-78
2021/08/03 08:02:50;;;;;;;;;;;18.20;99.90;;;;;;5125222;27;20031;-79
2021/08/03 08:05:16;;;;;;;2.75;1.48;;;18.40;99.90;;;;;;5122471;27;19977;-78
2021/08/03 08:07:42;;;;;;;;;;;18.50;99.90;;;;;;5124252;27;20050;-78
2021/08/03 08:10:08;;;;;;;2.92;1.35;;;18.60;99.90;;;;;;5125859;27;19931;-79
2021/08/03 08:12:34;;;;;;;2.97;1.50;;;18.80;99.90;;;;;;5124568;27;20374;-79
2021/08/03 08:15:00;;;;;;;;;;;19.00;99.90;;;;;;5120952;27;20109;-78
2021/08/03 08:17:26;;;;;;;3.40;1.83;;;19.10;99.90;;;;;;5116427;27;20023;-78
2021/08/03 08:19:51;;;;;;;;;;;19.30;99.90;;;;;;5124332;27;20092;-79
2021/08/03 08:22:17;;;;;;;3.95;1.83;;;19.40;99.90;;;;;;5122230;27;19921;-79
2021/08/03 08:24:44;;;;;;;;;;;19.40;99.90;;;;;;5129318;27;20172;-78
2021/08/03 08:27:11;;;;;;;3.65;1.50;;;19.50;99.90;;;;;;5130181;27;19923;-79
2021/08/03 08:29:39;;;;;;;7.53;1.80;;;19.60;99.90;;;;;;5125749;27;20039;-78
2021/08/03 08:32:06;;;;;;;2.50;1.50;;;19.70;99.90;;;;;;5122286;27;20039;-79
2021/08/03 08:34:32;;;;;;;2.42;1.20;;;19.80;99.90;;;;;;5116995;27;20112;-78
2021/08/03 08:36:57;;;;;;;2.40;1.10;;;19.70;99.90;;;;;;5116561;27;20047;-79
2021/08/03 08:39:23;;;;;;;;;;;19.50;99.90;;;;;;5126001;27;20092;-78
2021/08/03 08:41:49;;;;;;;2.20;1.27;;;19.30;99.90;;;;;;5114734;27;19943;-78
2021/08/03 08:44:18;;;;;;;;;;;19.20;99.90;;;;;;5117227;27;20036;-78
2021/08/03 08:46:45;;;;;;;2.58;1.40;;;19.10;99.90;;;;;;5129577;27;20372;-79
2021/08/03 08:49:14;;;;;;;3.70;1.60;;;18.90;99.90;;;;;;5114301;27;20047;-80
2021/08/03 08:51:41;;;;;;;3.35;1.50;;;18.90;99.90;;;;;;5111094;27;20040;-79
2021/08/03 08:54:07;;;;;;;4.50;1.20;;;18.80;99.90;;;;;;5120649;27;20054;-78
2021/08/03 08:56:33;;;;;;;;;;;18.70;99.90;;;;;;5123352;27;20039;-78
2021/08/03 08:58:58;;;;;;;2.55;1.30;;;18.50;99.90;;;;;;5119318;27;19919;-79
2021/08/03 09:01:24;;;;;;;;;;;18.40;99.90;;;;;;5124684;27;20034;-77
2021/08/03 09:03:50;;;;;;;2.60;1.10;;;18.40;99.90;;;;;;5124854;27;20270;-78
2021/08/03 09:06:20;;;;;;;;;;;18.40;99.90;;;;;;5122388;27;20070;-80
2021/08/03 09:08:47;;;;;;;4.28;1.30;;;18.40;99.90;;;;;;5126411;27;19987;-79
2021/08/03 09:11:14;;;;;;;2.60;1.30;;;18.40;99.90;;;;;;5114047;27;20067;-79
2021/08/03 09:13:51;;;;;;;2.85;1.27;;;18.40;99.90;;;;;;5117026;27;20046;-78
2021/08/03 09:16:17;;;;;;;1.95;1.15;;;18.50;99.90;;;;;;5114615;27;20096;-78
2021/08/03 09:18:44;;;;;;;2.55;1.30;;;18.50;99.90;;;;;;5123124;27;20057;-78
2021/08/03 09:21:25;;;;;;;2.50;1.30;;;18.60;99.90;;;;;;5124478;27;20289;-80
2021/08/03 09:23:52;;;;;;;2.40;1.10;;;18.70;99.90;;;;;;5129960;27;20126;-79
2021/08/03 09:26:20;;;;;;;2.50;1.60;;;18.80;99.90;;;;;;5125395;27;20039;-79
2021/08/03 09:29:05;;;;;;;3.15;1.38;;;18.90;99.90;;;;;;5120660;27;20034;-79
2021/08/03 09:31:33;;;;;;;2.72;1.35;;;18.90;99.90;;;;;;5095821;27;20078;-79
2021/08/03 09:34:00;;;;;;;2.65;1.77;;;18.90;99.90;;;;;;5126615;27;20443;-79
2021/08/03 09:36:52;;;;;;;3.58;1.70;;;18.90;99.90;;;;;;5123618;27;20135;-78
2021/08/03 09:39:36;;;;;;;3.40;1.70;;;19.00;99.90;;;;;;5124893;27;20676;-80
2021/08/03 09:42:14;;;;;;;2.35;1.50;;;19.00;99.90;;;;;;5120022;27;20043;-79
2021/08/03 09:45:00;;;;;;;3.15;1.60;;;19.00;99.90;;;;;;5113184;27;20043;-79
2021/08/03 09:47:34;;;;;;;2.90;1.80;;;18.90;99.90;;;;;;5119554;27;20050;-79
2021/08/03 09:50:04;;;;;;;2.95;1.65;;;18.90;99.90;;;;;;5117048;27;20056;-79
2021/08/03 09:52:33;;;;;;;2.00;1.27;;;18.90;99.90;;;;;;5127157;27;20472;-79
2021/08/03 09:55:11;;;;;;;4.32;1.60;;;18.80;99.90;;;;;;5118469;27;20028;-79
2021/08/03 09:57:37;;;;;;;3.65;1.50;;;18.80;99.90;;;;;;5129976;27;20043;-78
2021/08/03 10:00:27;;;;;;;4.05;1.73;;;18.80;99.90;;;;;;5119893;27;20039;-77
2021/08/03 10:02:54;;;;;;;2.40;1.35;;;18.90;99.90;;;;;;5123050;27;20627;-79
2021/08/03 10:05:21;;;;;;;2.50;1.55;;;18.90;99.90;;;;;;5114432;27;20053;-78
2021/08/03 10:07:47;;;;;;;1.98;1.27;;;18.80;99.90;;;;;;5119094;27;20134;-77
2021/08/03 10:10:14;;;;;;;3.53;1.63;;;18.80;99.90;;;;;;5120731;27;20491;-78
2021/08/03 10:12:40;;;;;;;3.47;1.60;;;18.80;99.90;;;;;;5122882;27;20485;-78
2021/08/03 10:15:10;;;;;;;;;;;18.80;99.90;;;;;;5126829;27;20039;-79
2021/08/03 10:17:36;;;;;;;2.55;1.25;;;18.80;99.90;;;;;;5128077;27;19927;-79
2021/08/03 10:20:02;;;;;;;;;;;18.80;99.90;;;;;;5120983;27;20400;-79
2021/08/03 10:22:31;;;;;;;2.60;1.40;;;18.80;99.90;;;;;;5111567;27;19915;-78
2021/08/03 10:25:02;;;;;;;3.58;1.60;;;18.90;99.90;;;;;;5129352;27;20724;-79
2021/08/03 10:27:40;;;;;;;3.97;1.63;;;19.00;99.90;;;;;;5115453;27;20047;-78
2021/08/03 10:30:07;;;;;;;2.60;1.33;;;19.00;99.90;;;;;;5117704;27;20385;-80
2021/08/03 10:32:46;;;;;;;2.17;1.30;;;19.10;99.90;;;;;;5120117;27;20039;-78
2021/08/03 10:35:37;;;;;;;2.35;1.30;;;19.20;99.90;;;;;;5118009;27;20374;-80
2021/08/03 10:38:03;;;;;;;2.40;1.30;;;19.30;99.90;;;;;;5129885;27;20043;-78
2021/08/03 10:40:44;;;;;;;3.65;1.52;;;19.50;99.90;;;;;;5127846;27;20491;-78
2021/08/03 10:43:19;;;;;;;2.20;1.33;;;19.70;99.90;;;;;;5116595;27;20432;-78
2021/08/03 10:45:46;;;;;;;2.67;1.40;;;20.20;99.10;;;;;;5129517;27;20433;-78
2021/08/03 10:48:53;;;;;;;2.75;1.40;;;20.50;97.90;;;;;;5123425;27;20401;-80
2021/08/03 10:51:20;;;;;;;2.00;1.30;;;20.80;98.40;;;;;;5076108;28;20055;-78
2021/08/03 10:53:52;;;;;;;3.03;1.50;;;21.00;98.50;;;;;;5069976;28;20619;-79
2021/08/03 10:56:20;;;;;;;3.65;1.60;;;21.30;98.00;;;;;;5097414;28;20077;-78
2021/08/03 10:58:46;;;;;;;2.30;1.27;;;21.80;96.90;;;;;;5109311;28;20374;-79
2021/08/03 11:01:52;;;;;;;2.72;1.38;;;22.00;92.70;;;;;;5111625;27;20092;-78
2021/08/03 11:04:39;;;;;;;2.45;1.48;;;22.10;94.20;;;;;;5098627;28;20062;-78
2021/08/03 11:07:24;;;;;;;2.60;1.30;;;22.30;90.00;;;;;;5107583;28;20478;-79
2021/08/03 11:09:50;;;;;;;2.97;1.60;;;22.20;87.60;;;;;;5108244;28;20161;-78
2021/08/03 11:12:44;;;;;;;3.83;1.80;;;22.20;87.40;;;;;;5107043;28;20043;-78
2021/08/03 11:15:22;;;;;;;2.70;1.40;;;22.20;86.90;;;;;;5100118;28;20040;-78
2021/08/03 11:18:02;;;;;;;2.55;1.35;;;22.30;90.00;;;;;;5108619;28;20536;-79
2021/08/03 11:20:48;;;;;;;2.47;1.30;;;22.50;83.00;;;;;;5103907;28;20075;-78
2021/08/03 11:23:16;;;;;;;2.07;1.43;;;22.50;85.30;;;;;;5099606;28;20078;-78
2021/08/03 11:25:47;;;;;;;2.67;1.42;;;22.30;86.60;;;;;;5108655;28;20074;-80
2021/08/03 11:28:15;;;;;;;3.80;1.50;;;22.20;89.20;;;;;;5100007;28;20392;-79
2021/08/03 11:30:45;;;;;;;5.45;1.40;;;22.10;85.50;;;;;;5096626;28;20042;-78
2021/08/03 11:33:13;;;;;;;2.83;1.30;;;22.00;81.70;;;;;;5106267;28;20213;-78
2021/08/03 11:35:40;;;;;;;2.55;1.60;;;21.80;82.50;;;;;;5108588;28;20032;-78
2021/08/03 11:38:09;;;;;;;2.75;1.50;;;21.70;83.80;;;;;;5106761;28;20110;-77
2021/08/03 11:40:35;;;;;;;2.17;1.50;;;21.60;83.60;;;;;;5115680;28;20040;-79
2021/08/03 11:43:03;;;;;;;4.05;1.50;;;21.40;84.20;;;;;;5117027;28;20100;-79
2021/08/03 11:45:29;;;;;;;2.97;1.50;;;21.70;84.80;;;;;;5114535;28;20050;-77
2021/08/03 11:47:59;;;;;;;3.00;1.52;;;22.10;86.60;;;;;;5110645;28;20421;-78
2021/08/03 11:50:36;;;;;;;3.20;1.55;;;22.50;84.20;;;;;;5116279;27;20053;-78
2021/08/03 11:53:12;;;;;;;;;;;22.80;85.70;;;;;;5111743;27;20044;-78
2021/08/03 11:55:49;;;;;;;2.65;1.60;;;22.90;87.60;;;;;;5111019;27;19920;-78
2021/08/03 11:58:26;;;;;;;3.15;1.60;;;23.00;85.10;;;;;;5116752;27;20040;-76
2021/08/03 12:00:56;;;;;;;2.72;1.40;;;23.20;85.60;;;;;;5119769;27;20116;-77
2021/08/03 12:03:36;;;;;;;3.88;1.88;;;23.30;80.90;;;;;;5121273;27;20039;-77
2021/08/03 12:06:06;;;;;;;3.13;1.73;;;23.10;77.10;;;;;;5102021;27;20031;-78
2021/08/03 12:08:34;;;;;;;3.20;1.60;;;22.80;77.70;;;;;;5122135;27;20473;-78
2021/08/03 12:11:00;;;;;;;2.38;1.50;;;22.50;78.00;;;;;;5120855;27;20035;-78
2021/08/03 12:13:28;;;;;;;2.65;1.50;;;22.20;77.80;;;;;;5123164;27;20043;-77
2021/08/03 12:15:56;;;;;;;4.53;2.10;;;22.00;80.60;;;;;;5118150;27;20108;-77
2021/08/03 12:18:22;;;;;;;2.88;1.63;;;21.90;83.30;;;;;;5125648;27;20623;-78
2021/08/03 12:20:58;;;;;;;2.55;1.50;;;22.00;88.40;;;;;;5124117;27;20103;-79
2021/08/03 12:23:27;;;;;;;2.42;1.50;;;21.90;85.40;;;;;;5114130;27;20032;-77
2021/08/03 12:26:24;;;;;;;2.72;1.80;;;21.80;86.80;;;;;;5117910;27;20036;-79
2021/08/03 12:28:49;;;;;;;3.00;1.80;;;21.80;85.60;;;;;;5125299;27;20078;-78
2021/08/03 12:31:31;;;;;;;2.80;2.05;;;21.70;87.40;;;;;;5118967;27;20754;-78
2021/08/03 12:34:13;;;;;;;3.35;1.67;;;21.70;85.10;;;;;;5124083;27;20047;-77
2021/08/03 12:36:49;;;;;;;4.30;1.75;;;21.70;85.10;;;;;;5121531;27;20385;-77
2021/08/03 12:39:26;;;;;;;2.95;1.70;;;21.80;88.00;;;;;;5115017;27;20369;-78
2021/08/03 12:42:54;;;;;;;3.08;1.50;;;21.90;85.60;;;;;;5116930;27;20048;-78
2021/08/03 12:44:59;;;;;;;4.15;1.73;;;22.00;81.80;;;;;;5116602;27;20036;-79
2021/08/03 12:47:27;;;;;;;4.00;1.70;;;22.10;81.60;;;;;;5124977;27;20143;-77
2021/08/03 12:50:06;;;;;;;3.05;1.50;;;22.40;81.20;;;;;;5127570;27;20050;-78
2021/08/03 12:52:33;;;;;;;2.38;1.52;;;22.90;83.90;;;;;;5112447;27;20059;-77
2021/08/03 12:55:02;;;;;;;2.20;1.50;;;23.20;82.10;;;;;;5117854;27;20040;-78
2021/08/03 12:57:47;;;;;;;2.53;1.50;;;23.00;79.30;;;;;;5113892;27;20039;-78
2021/08/03 13:00:27;;;;;;;2.42;1.48;;;22.70;78.10;;;;;;5127971;27;20629;-78
2021/08/03 13:02:52;;;;;;;4.20;1.73;;;22.50;73.30;;;;;;5118677;27;20040;-78
2021/08/03 13:05:18;;;;;;;2.13;1.42;;;22.10;76.00;;;;;;5128201;27;20046;-79
2021/08/03 13:07:44;;;;;;;3.95;1.95;;;21.70;78.00;;;;;;5115009;27;20074;-77
2021/08/03 13:10:10;;;;;;;2.97;1.58;;;21.60;81.30;;;;;;5127702;27;20031;-77